Gulbeniz A — TCZK8 — position and weather

sailwx.info

Track history (hours):
 
Tides and Currents Weather Stations Pressure Air Temp Water Temp Dewpoint Dewpoint Depression Visibility Wind Speed Wind Dir Waves Ship Positions

Gulbeniz A

Last reported at 2016-Aug-28 04:27 UTC. Time now 2016-Aug-28 16:41 UTC.
Position N 39°24' W 000°16'.

Length 210 m; draft 10.2 m.

Type: Ship (hazmat cat A). MMSI: 271042493.

Date/timePositionNaut miles runAvg speedWind from/ knotsBaromVisibWave heightAir tempDewpointWater temp
2016-Aug-28 04:27N 39°24' W 000°16'0 0.1
2016-Aug-28 02:24N 39°24' W 000°16'0 0.0
2016-Aug-27 19:09N 39°24' W 000°16'1 1.6
2016-Aug-27 18:33N 39°24' W 000°15'4610.7
2016-Aug-27 14:17N 39°20' E 000°44'810.8
2016-Aug-27 13:33N 39°19' E 000°54'1110.7
2016-Aug-27 12:33N 39°18' E 001°08'1615.5
2016-Aug-27 11:33N 39°17' E 001°28'1212.2
2016-Aug-27 10:33N 39°15' E 001°43'1110.9
2016-Aug-27 09:33N 39°12' E 001°57'1111.1
2016-Aug-27 08:33N 39°10' E 002°11'1111.3
2016-Aug-27 07:33N 39°08' E 002°25'1311.1
2016-Aug-27 06:25N 39°06' E 002°41'2010.8
2016-Aug-27 04:33N 39°04' E 003°07'1111.0
2016-Aug-27 03:34N 39°03' E 003°21'1110.9
2016-Aug-27 02:33N 39°02' E 003°35'1110.8
2016-Aug-27 01:33N 39°02' E 003°49'1111.1
2016-Aug-27 00:34N 39°01' E 004°03'1111.3
2016-Aug-26 23:33N 39°01' E 004°17'2711.3
2016-Aug-26 21:13N 38°59' E 004°51'3511.4
2016-Aug-26 18:10N 38°57' E 005°36'711.2
2016-Aug-26 17:33N 38°57' E 005°45'14511.1
2016-Aug-26 04:32N 38°50' E 008°51'1110.7
2016-Aug-26 03:33N 38°55' E 009°03'1010.2
2016-Aug-26 02:33N 39°04' E 009°08'9 9.0
2016-Aug-26 01:33N 39°13' E 009°04'0 0.2
2016-Aug-26 00:31N 39°13' E 009°04'0 0.0
2016-Aug-25 23:31N 39°13' E 009°04'0 0.0
2016-Aug-25 22:31N 39°13' E 009°04'0 0.0
2016-Aug-25 21:31N 39°13' E 009°04'0 0.0
2016-Aug-25 20:31N 39°13' E 009°04'0 0.0
2016-Aug-25 19:31N 39°13' E 009°04'0 0.0
2016-Aug-25 18:31N 39°13' E 009°04'0 0.0
2016-Aug-25 17:31N 39°13' E 009°04'0 0.0
2016-Aug-25 16:31N 39°13' E 009°04'0 0.0
2016-Aug-25 15:31N 39°13' E 009°04'0 0.0
2016-Aug-25 14:31N 39°13' E 009°04'0 0.0
2016-Aug-25 13:31N 39°13' E 009°04'0 0.0
2016-Aug-25 12:31N 39°13' E 009°04'0 0.0
2016-Aug-25 11:31N 39°13' E 009°04'1 0.7
2016-Aug-25 10:33N 39°13' E 009°05'10 9.6
2016-Aug-25 09:32N 39°05' E 009°12'1515.4
2016-Aug-25 08:33N 38°57' E 009°28'1715.8
2016-Aug-25 07:30N 38°47' E 009°46'20110.1
2016-Aug-24 11:33N 37°03' E 013°23'1010.0
2016-Aug-24 10:34N 36°59' E 013°35'1010.1
2016-Aug-24 09:33N 36°55' E 013°46'1110.6
2016-Aug-24 08:33N 36°51' E 013°58'1110.9
2016-Aug-24 07:33N 36°46' E 014°11'44113.0
2016-Aug-22 21:33N 36°34' E 023°21'1616.1
2016-Aug-22 20:33N 36°48' E 023°30'1616.4
2016-Aug-22 19:34N 37°02' E 023°41'1615.6
2016-Aug-22 18:33N 37°15' E 023°51'1514.9
2016-Aug-22 17:33N 37°28' E 024°02'1915.3
2016-Aug-22 16:17N 37°44' E 024°15'1315.2
2016-Aug-22 15:27N 37°52' E 024°28'263 6.3
2016-Aug-20 21:33N 40°25' E 029°04'0 0.0
2016-Aug-20 16:08N 40°25' E 029°05'0 0.0
2016-Aug-20 12:32N 40°25' E 029°05'0 0.0
2016-Aug-20 11:32N 40°25' E 029°05'0 0.0
2016-Aug-20 09:16N 40°25' E 029°05'3 2.8
2016-Aug-20 08:22N 40°26' E 029°01'18 6.5
2016-Aug-20 05:33N 40°43' E 029°08'1413.7
2016-Aug-20 04:31N 40°45' E 029°26'4 0.2
2016-Aug-19 02:24N 40°45' E 029°32'910.7
2016-Aug-19 01:33N 40°43' E 029°20'1413.3
2016-Aug-19 00:32N 40°45' E 029°02'  
Track history (hours):
 
Tides and Currents Weather Stations Pressure Air Temp Water Temp Dewpoint Dewpoint Depression Visibility Wind Speed Wind Dir Waves Ship Positions

Gulbeniz A

Last reported at 2016-Aug-28 04:27 UTC. Time now 2016-Aug-28 16:41 UTC.
Position N 39°24' W 000°16'.

Length 210 m; draft 10.2 m.

Type: Ship (hazmat cat A). MMSI: 271042493.

Date/timePositionNaut miles runAvg speedWind from/ knotsBaromVisibWave heightAir tempDewpointWater temp
2016-Aug-28 04:27N 39°24' W 000°16'0 0.1
2016-Aug-28 02:24N 39°24' W 000°16'0 0.0
2016-Aug-27 19:09N 39°24' W 000°16'1 1.6
2016-Aug-27 18:33N 39°24' W 000°15'4610.7
2016-Aug-27 14:17N 39°20' E 000°44'810.8
2016-Aug-27 13:33N 39°19' E 000°54'1110.7
2016-Aug-27 12:33N 39°18' E 001°08'1615.5
2016-Aug-27 11:33N 39°17' E 001°28'1212.2
2016-Aug-27 10:33N 39°15' E 001°43'1110.9
2016-Aug-27 09:33N 39°12' E 001°57'1111.1
2016-Aug-27 08:33N 39°10' E 002°11'1111.3
2016-Aug-27 07:33N 39°08' E 002°25'1311.1
2016-Aug-27 06:25N 39°06' E 002°41'2010.8
2016-Aug-27 04:33N 39°04' E 003°07'1111.0
2016-Aug-27 03:34N 39°03' E 003°21'1110.9
2016-Aug-27 02:33N 39°02' E 003°35'1110.8
2016-Aug-27 01:33N 39°02' E 003°49'1111.1
2016-Aug-27 00:34N 39°01' E 004°03'1111.3
2016-Aug-26 23:33N 39°01' E 004°17'2711.3
2016-Aug-26 21:13N 38°59' E 004°51'3511.4
2016-Aug-26 18:10N 38°57' E 005°36'711.2
2016-Aug-26 17:33N 38°57' E 005°45'14511.1
2016-Aug-26 04:32N 38°50' E 008°51'1110.7
2016-Aug-26 03:33N 38°55' E 009°03'1010.2
2016-Aug-26 02:33N 39°04' E 009°08'9 9.0
2016-Aug-26 01:33N 39°13' E 009°04'0 0.2
2016-Aug-26 00:31N 39°13' E 009°04'0 0.0
2016-Aug-25 23:31N 39°13' E 009°04'0 0.0
2016-Aug-25 22:31N 39°13' E 009°04'0 0.0
2016-Aug-25 21:31N 39°13' E 009°04'0 0.0
2016-Aug-25 20:31N 39°13' E 009°04'0 0.0
2016-Aug-25 19:31N 39°13' E 009°04'0 0.0
2016-Aug-25 18:31N 39°13' E 009°04'0 0.0
2016-Aug-25 17:31N 39°13' E 009°04'0 0.0
2016-Aug-25 16:31N 39°13' E 009°04'0 0.0
2016-Aug-25 15:31N 39°13' E 009°04'0 0.0
2016-Aug-25 14:31N 39°13' E 009°04'0 0.0
2016-Aug-25 13:31N 39°13' E 009°04'0 0.0
2016-Aug-25 12:31N 39°13' E 009°04'0 0.0
2016-Aug-25 11:31N 39°13' E 009°04'1 0.7
2016-Aug-25 10:33N 39°13' E 009°05'10 9.6
2016-Aug-25 09:32N 39°05' E 009°12'1515.4
2016-Aug-25 08:33N 38°57' E 009°28'1715.8
2016-Aug-25 07:30N 38°47' E 009°46'20110.1
2016-Aug-24 11:33N 37°03' E 013°23'1010.0
2016-Aug-24 10:34N 36°59' E 013°35'1010.1
2016-Aug-24 09:33N 36°55' E 013°46'1110.6
2016-Aug-24 08:33N 36°51' E 013°58'1110.9
2016-Aug-24 07:33N 36°46' E 014°11'44113.0
2016-Aug-22 21:33N 36°34' E 023°21'1616.1
2016-Aug-22 20:33N 36°48' E 023°30'1616.4
2016-Aug-22 19:34N 37°02' E 023°41'1615.6
2016-Aug-22 18:33N 37°15' E 023°51'1514.9
2016-Aug-22 17:33N 37°28' E 024°02'1915.3
2016-Aug-22 16:17N 37°44' E 024°15'1315.2
2016-Aug-22 15:27N 37°52' E 024°28'263 6.3
2016-Aug-20 21:33N 40°25' E 029°04'0 0.0
2016-Aug-20 16:08N 40°25' E 029°05'0 0.0
2016-Aug-20 12:32N 40°25' E 029°05'0 0.0
2016-Aug-20 11:32N 40°25' E 029°05'0 0.0
2016-Aug-20 09:16N 40°25' E 029°05'3 2.8
2016-Aug-20 08:22N 40°26' E 029°01'18 6.5
2016-Aug-20 05:33N 40°43' E 029°08'1413.7
2016-Aug-20 04:31N 40°45' E 029°26'4 0.2
2016-Aug-19 02:24N 40°45' E 029°32'910.7
2016-Aug-19 01:33N 40°43' E 029°20'1413.3
2016-Aug-19 00:32N 40°45' E 029°02'  

Dump ship's entire track history